sensor_id;sensor_type;location;lat;lon;timestamp;P1;durP1;ratioP1;P2;durP2;ratioP2
57191;SDS011;43052;52.588;13.396;2022-09-20T00:00:01;7.72;;;2.65;;
57191;SDS011;43052;52.588;13.396;2022-09-20T00:02:26;4.93;;;2.22;;
57191;SDS011;43052;52.588;13.396;2022-09-20T00:04:52;6.63;;;3.33;;
57191;SDS011;43052;52.588;13.396;2022-09-20T00:07:17;3.85;;;2.50;;
57191;SDS011;43052;52.588;13.396;2022-09-20T00:09:42;4.53;;;2.47;;
57191;SDS011;43052;52.588;13.396;2022-09-20T00:12:07;6.32;;;2.53;;
57191;SDS011;43052;52.588;13.396;2022-09-20T00:14:34;4.75;;;2.60;;
57191;SDS011;43052;52.588;13.396;2022-09-20T00:16:59;6.00;;;2.90;;
57191;SDS011;43052;52.588;13.396;2022-09-20T00:19:24;5.55;;;2.47;;
57191;SDS011;43052;52.588;13.396;2022-09-20T00:21:49;5.18;;;2.70;;
57191;SDS011;43052;52.588;13.396;2022-09-20T00:24:15;5.00;;;2.97;;
57191;SDS011;43052;52.588;13.396;2022-09-20T00:26:40;3.95;;;2.55;;
57191;SDS011;43052;52.588;13.396;2022-09-20T00:29:05;6.15;;;2.53;;
57191;SDS011;43052;52.588;13.396;2022-09-20T00:31:31;4.78;;;2.90;;
57191;SDS011;43052;52.588;13.396;2022-09-20T00:33:57;5.57;;;2.55;;
57191;SDS011;43052;52.588;13.396;2022-09-20T00:36:41;3.60;;;2.40;;
57191;SDS011;43052;52.588;13.396;2022-09-20T00:39:08;5.25;;;2.60;;
57191;SDS011;43052;52.588;13.396;2022-09-20T00:41:35;5.40;;;2.80;;
57191;SDS011;43052;52.588;13.396;2022-09-20T00:44:01;4.55;;;2.92;;
57191;SDS011;43052;52.588;13.396;2022-09-20T00:46:37;5.30;;;2.80;;
57191;SDS011;43052;52.588;13.396;2022-09-20T00:49:09;5.35;;;2.80;;
57191;SDS011;43052;52.588;13.396;2022-09-20T00:51:40;6.07;;;2.70;;
57191;SDS011;43052;52.588;13.396;2022-09-20T00:54:08;5.00;;;2.80;;
57191;SDS011;43052;52.588;13.396;2022-09-20T00:56:39;4.65;;;2.58;;
57191;SDS011;43052;52.588;13.396;2022-09-20T00:59:15;4.78;;;2.85;;
57191;SDS011;43052;52.588;13.396;2022-09-20T01:01:45;4.15;;;2.53;;
57191;SDS011;43052;52.588;13.396;2022-09-20T01:04:13;5.78;;;3.30;;
57191;SDS011;43052;52.588;13.396;2022-09-20T01:06:41;4.60;;;2.80;;
57191;SDS011;43052;52.588;13.396;2022-09-20T01:09:08;4.88;;;2.63;;
57191;SDS011;43052;52.588;13.396;2022-09-20T01:11:34;5.95;;;3.15;;
57191;SDS011;43052;52.588;13.396;2022-09-20T01:14:01;6.55;;;3.00;;
57191;SDS011;43052;52.588;13.396;2022-09-20T01:16:26;6.22;;;3.30;;
57191;SDS011;43052;52.588;13.396;2022-09-20T01:18:54;4.82;;;2.92;;
57191;SDS011;43052;52.588;13.396;2022-09-20T01:21:22;4.75;;;3.05;;
57191;SDS011;43052;52.588;13.396;2022-09-20T01:24:02;5.70;;;3.05;;
57191;SDS011;43052;52.588;13.396;2022-09-20T01:26:42;5.30;;;2.83;;
57191;SDS011;43052;52.588;13.396;2022-09-20T01:31:59;5.85;;;3.05;;
57191;SDS011;43052;52.588;13.396;2022-09-20T01:34:28;5.70;;;3.05;;
57191;SDS011;43052;52.588;13.396;2022-09-20T01:42:46;4.15;;;2.75;;
57191;SDS011;43052;52.588;13.396;2022-09-20T01:45:26;5.10;;;2.90;;
57191;SDS011;43052;52.588;13.396;2022-09-20T01:53:58;6.07;;;3.08;;
57191;SDS011;43052;52.588;13.396;2022-09-20T01:56:50;4.93;;;3.00;;
57191;SDS011;43052;52.588;13.396;2022-09-20T02:00:01;5.47;;;2.92;;
57191;SDS011;43052;52.588;13.396;2022-09-20T02:05:46;4.07;;;2.72;;
57191;SDS011;43052;52.588;13.396;2022-09-20T02:11:16;5.25;;;3.13;;
57191;SDS011;43052;52.588;13.396;2022-09-20T02:19:15;3.95;;;2.90;;
57191;SDS011;43052;52.588;13.396;2022-09-20T02:27:42;4.45;;;3.53;;
57191;SDS011;43052;52.588;13.396;2022-09-20T02:30:33;4.40;;;2.65;;
57191;SDS011;43052;52.588;13.396;2022-09-20T02:33:34;4.72;;;3.00;;
57191;SDS011;43052;52.588;13.396;2022-09-20T02:39:10;4.30;;;3.00;;
57191;SDS011;43052;52.588;13.396;2022-09-20T02:41:50;6.65;;;2.90;;
57191;SDS011;43052;52.588;13.396;2022-09-20T02:47:05;5.88;;;3.72;;
57191;SDS011;43052;52.588;13.396;2022-09-20T02:52:35;4.97;;;2.88;;
57191;SDS011;43052;52.588;13.396;2022-09-20T02:55:20;4.45;;;2.88;;
57191;SDS011;43052;52.588;13.396;2022-09-20T02:58:08;4.15;;;2.75;;
57191;SDS011;43052;52.588;13.396;2022-09-20T03:00:58;4.30;;;2.70;;
57191;SDS011;43052;52.588;13.396;2022-09-20T03:03:53;4.85;;;2.65;;
57191;SDS011;43052;52.588;13.396;2022-09-20T03:06:36;5.50;;;3.00;;
57191;SDS011;43052;52.588;13.396;2022-09-20T03:15:09;3.72;;;2.75;;
57191;SDS011;43052;52.588;13.396;2022-09-20T03:17:51;3.80;;;2.42;;
57191;SDS011;43052;52.588;13.396;2022-09-20T03:23:38;4.38;;;2.70;;
57191;SDS011;43052;52.588;13.396;2022-09-20T03:26:33;4.32;;;2.80;;
57191;SDS011;43052;52.588;13.396;2022-09-20T03:34:51;3.70;;;2.78;;
57191;SDS011;43052;52.588;13.396;2022-09-20T03:43:15;3.97;;;2.88;;
57191;SDS011;43052;52.588;13.396;2022-09-20T03:48:55;4.40;;;3.40;;
57191;SDS011;43052;52.588;13.396;2022-09-20T03:52:16;4.68;;;2.80;;
57191;SDS011;43052;52.588;13.396;2022-09-20T03:54:47;4.53;;;2.80;;
57191;SDS011;43052;52.588;13.396;2022-09-20T03:57:37;4.63;;;2.85;;
57191;SDS011;43052;52.588;13.396;2022-09-20T04:03:31;3.67;;;2.78;;
57191;SDS011;43052;52.588;13.396;2022-09-20T04:08:51;5.80;;;2.95;;
57191;SDS011;43052;52.588;13.396;2022-09-20T04:11:40;5.57;;;2.78;;
57191;SDS011;43052;52.588;13.396;2022-09-20T04:14:22;7.88;;;2.85;;
57191;SDS011;43052;52.588;13.396;2022-09-20T04:17:02;5.20;;;2.90;;
57191;SDS011;43052;52.588;13.396;2022-09-20T04:19:46;4.03;;;2.65;;
57191;SDS011;43052;52.588;13.396;2022-09-20T04:22:18;6.28;;;3.15;;
57191;SDS011;43052;52.588;13.396;2022-09-20T04:24:51;5.80;;;3.00;;
57191;SDS011;43052;52.588;13.396;2022-09-20T04:27:38;4.32;;;2.75;;
57191;SDS011;43052;52.588;13.396;2022-09-20T04:30:15;4.43;;;2.70;;
57191;SDS011;43052;52.588;13.396;2022-09-20T04:33:27;5.07;;;2.55;;
57191;SDS011;43052;52.588;13.396;2022-09-20T04:35:44;4.28;;;2.63;;
57191;SDS011;43052;52.588;13.396;2022-09-20T04:38:36;6.10;;;2.85;;
57191;SDS011;43052;52.588;13.396;2022-09-20T04:44:25;5.60;;;2.75;;
57191;SDS011;43052;52.588;13.396;2022-09-20T04:55:59;5.65;;;2.63;;
57191;SDS011;43052;52.588;13.396;2022-09-20T04:58:34;7.03;;;3.00;;
57191;SDS011;43052;52.588;13.396;2022-09-20T05:01:20;4.18;;;2.50;;
57191;SDS011;43052;52.588;13.396;2022-09-20T05:10:16;3.95;;;2.60;;
57191;SDS011;43052;52.588;13.396;2022-09-20T05:13:07;6.85;;;2.67;;
57191;SDS011;43052;52.588;13.396;2022-09-20T05:19:03;5.90;;;2.60;;
57191;SDS011;43052;52.588;13.396;2022-09-20T05:21:47;5.95;;;2.80;;
57191;SDS011;43052;52.588;13.396;2022-09-20T05:27:27;7.72;;;3.05;;
57191;SDS011;43052;52.588;13.396;2022-09-20T05:36:03;5.78;;;2.90;;
57191;SDS011;43052;52.588;13.396;2022-09-20T05:38:49;5.47;;;2.67;;
57191;SDS011;43052;52.588;13.396;2022-09-20T05:41:36;4.38;;;2.67;;
57191;SDS011;43052;52.588;13.396;2022-09-20T05:47:18;3.65;;;2.33;;
57191;SDS011;43052;52.588;13.396;2022-09-20T05:49:59;3.33;;;1.95;;
57191;SDS011;43052;52.588;13.396;2022-09-20T06:01:29;6.35;;;2.35;;
57191;SDS011;43052;52.588;13.396;2022-09-20T06:04:25;4.47;;;2.40;;
57191;SDS011;43052;52.588;13.396;2022-09-20T06:07:06;4.85;;;2.40;;
57191;SDS011;43052;52.588;13.396;2022-09-20T06:09:54;5.57;;;2.25;;
57191;SDS011;43052;52.588;13.396;2022-09-20T06:12:51;3.55;;;2.08;;
57191;SDS011;43052;52.588;13.396;2022-09-20T06:18:04;3.42;;;1.95;;
57191;SDS011;43052;52.588;13.396;2022-09-20T06:20:49;3.90;;;2.03;;
57191;SDS011;43052;52.588;13.396;2022-09-20T06:23:21;6.40;;;2.22;;
57191;SDS011;43052;52.588;13.396;2022-09-20T06:25:48;3.83;;;2.08;;
57191;SDS011;43052;52.588;13.396;2022-09-20T06:28:20;4.28;;;1.90;;
57191;SDS011;43052;52.588;13.396;2022-09-20T06:30:49;14.20;;;12.25;;
57191;SDS011;43052;52.588;13.396;2022-09-20T06:33:17;4.80;;;2.72;;
57191;SDS011;43052;52.588;13.396;2022-09-20T06:35:46;5.38;;;1.85;;
57191;SDS011;43052;52.588;13.396;2022-09-20T06:41:54;4.20;;;1.70;;
57191;SDS011;43052;52.588;13.396;2022-09-20T06:44:19;5.53;;;3.55;;
57191;SDS011;43052;52.588;13.396;2022-09-20T06:46:45;3.17;;;2.42;;
57191;SDS011;43052;52.588;13.396;2022-09-20T06:49:10;2.00;;;1.70;;
57191;SDS011;43052;52.588;13.396;2022-09-20T06:51:36;3.10;;;2.00;;
57191;SDS011;43052;52.588;13.396;2022-09-20T06:54:02;3.03;;;1.80;;
57191;SDS011;43052;52.588;13.396;2022-09-20T06:56:30;5.32;;;1.83;;
57191;SDS011;43052;52.588;13.396;2022-09-20T06:59:04;3.03;;;2.00;;
57191;SDS011;43052;52.588;13.396;2022-09-20T07:01:34;5.13;;;2.38;;
57191;SDS011;43052;52.588;13.396;2022-09-20T07:04:00;3.08;;;1.90;;
57191;SDS011;43052;52.588;13.396;2022-09-20T07:06:26;3.75;;;2.10;;
57191;SDS011;43052;52.588;13.396;2022-09-20T07:08:53;3.13;;;1.75;;
57191;SDS011;43052;52.588;13.396;2022-09-20T07:11:18;2.55;;;1.75;;
57191;SDS011;43052;52.588;13.396;2022-09-20T07:13:44;2.38;;;1.80;;
57191;SDS011;43052;52.588;13.396;2022-09-20T07:16:13;3.42;;;1.92;;
57191;SDS011;43052;52.588;13.396;2022-09-20T07:18:39;4.03;;;1.90;;
57191;SDS011;43052;52.588;13.396;2022-09-20T07:21:08;3.28;;;1.90;;
57191;SDS011;43052;52.588;13.396;2022-09-20T07:23:36;5.22;;;1.77;;
57191;SDS011;43052;52.588;13.396;2022-09-20T07:26:01;2.95;;;1.67;;
57191;SDS011;43052;52.588;13.396;2022-09-20T07:28:27;3.60;;;1.77;;
57191;SDS011;43052;52.588;13.396;2022-09-20T07:30:53;5.30;;;2.28;;
57191;SDS011;43052;52.588;13.396;2022-09-20T07:33:18;3.20;;;1.55;;
57191;SDS011;43052;52.588;13.396;2022-09-20T07:35:46;4.75;;;2.08;;
57191;SDS011;43052;52.588;13.396;2022-09-20T07:38:12;3.22;;;1.50;;
57191;SDS011;43052;52.588;13.396;2022-09-20T07:40:39;4.47;;;2.10;;
57191;SDS011;43052;52.588;13.396;2022-09-20T07:43:04;1.85;;;1.50;;
57191;SDS011;43052;52.588;13.396;2022-09-20T07:45:30;4.68;;;1.77;;
57191;SDS011;43052;52.588;13.396;2022-09-20T07:47:56;1.98;;;1.83;;
57191;SDS011;43052;52.588;13.396;2022-09-20T07:50:22;4.57;;;1.80;;
57191;SDS011;43052;52.588;13.396;2022-09-20T07:52:47;4.33;;;1.60;;
57191;SDS011;43052;52.588;13.396;2022-09-20T07:55:12;2.67;;;1.58;;
57191;SDS011;43052;52.588;13.396;2022-09-20T07:57:37;2.37;;;1.63;;
57191;SDS011;43052;52.588;13.396;2022-09-20T08:00:04;4.87;;;1.83;;
57191;SDS011;43052;52.588;13.396;2022-09-20T08:02:30;3.85;;;1.88;;
57191;SDS011;43052;52.588;13.396;2022-09-20T08:04:55;3.33;;;2.00;;
57191;SDS011;43052;52.588;13.396;2022-09-20T08:07:21;2.40;;;1.60;;
57191;SDS011;43052;52.588;13.396;2022-09-20T08:09:46;2.28;;;1.50;;
57191;SDS011;43052;52.588;13.396;2022-09-20T08:12:11;2.70;;;1.70;;
57191;SDS011;43052;52.588;13.396;2022-09-20T08:14:38;4.35;;;1.48;;
57191;SDS011;43052;52.588;13.396;2022-09-20T08:17:03;2.17;;;1.55;;
57191;SDS011;43052;52.588;13.396;2022-09-20T08:19:29;3.20;;;1.70;;
57191;SDS011;43052;52.588;13.396;2022-09-20T08:21:54;3.83;;;1.73;;
57191;SDS011;43052;52.588;13.396;2022-09-20T08:24:19;2.05;;;1.60;;
57191;SDS011;43052;52.588;13.396;2022-09-20T08:26:45;2.60;;;1.52;;
57191;SDS011;43052;52.588;13.396;2022-09-20T08:29:11;2.95;;;1.77;;
57191;SDS011;43052;52.588;13.396;2022-09-20T08:31:37;3.17;;;1.90;;
57191;SDS011;43052;52.588;13.396;2022-09-20T08:34:06;2.88;;;1.75;;
57191;SDS011;43052;52.588;13.396;2022-09-20T08:36:34;4.10;;;1.55;;
57191;SDS011;43052;52.588;13.396;2022-09-20T08:39:02;3.55;;;1.83;;
57191;SDS011;43052;52.588;13.396;2022-09-20T08:41:51;4.43;;;1.77;;
57191;SDS011;43052;52.588;13.396;2022-09-20T08:44:27;2.35;;;1.70;;
57191;SDS011;43052;52.588;13.396;2022-09-20T08:47:05;3.70;;;1.98;;
57191;SDS011;43052;52.588;13.396;2022-09-20T08:49:37;2.15;;;1.63;;
57191;SDS011;43052;52.588;13.396;2022-09-20T08:52:04;3.25;;;1.67;;
57191;SDS011;43052;52.588;13.396;2022-09-20T08:54:30;2.47;;;1.40;;
57191;SDS011;43052;52.588;13.396;2022-09-20T08:56:57;1.95;;;1.48;;
57191;SDS011;43052;52.588;13.396;2022-09-20T08:59:27;1.65;;;1.35;;
57191;SDS011;43052;52.588;13.396;2022-09-20T09:01:52;4.57;;;1.88;;
57191;SDS011;43052;52.588;13.396;2022-09-20T09:04:19;2.55;;;1.58;;
57191;SDS011;43052;52.588;13.396;2022-09-20T09:06:47;4.05;;;1.50;;
57191;SDS011;43052;52.588;13.396;2022-09-20T09:09:21;2.63;;;1.40;;
57191;SDS011;43052;52.588;13.396;2022-09-20T09:11:49;1.95;;;1.35;;
57191;SDS011;43052;52.588;13.396;2022-09-20T09:14:32;2.90;;;1.20;;
57191;SDS011;43052;52.588;13.396;2022-09-20T09:17:16;2.45;;;1.30;;
57191;SDS011;43052;52.588;13.396;2022-09-20T09:19:47;2.55;;;1.67;;
57191;SDS011;43052;52.588;13.396;2022-09-20T09:22:18;1.75;;;1.30;;
57191;SDS011;43052;52.588;13.396;2022-09-20T09:24:47;3.10;;;1.50;;
57191;SDS011;43052;52.588;13.396;2022-09-20T09:27:31;4.40;;;1.50;;
57191;SDS011;43052;52.588;13.396;2022-09-20T09:29:56;3.63;;;1.40;;
57191;SDS011;43052;52.588;13.396;2022-09-20T09:32:23;3.17;;;1.60;;
57191;SDS011;43052;52.588;13.396;2022-09-20T09:34:53;3.10;;;1.30;;
57191;SDS011;43052;52.588;13.396;2022-09-20T09:37:26;2.58;;;1.40;;
57191;SDS011;43052;52.588;13.396;2022-09-20T09:42:33;2.80;;;1.50;;
57191;SDS011;43052;52.588;13.396;2022-09-20T09:48:00;3.15;;;1.60;;
57191;SDS011;43052;52.588;13.396;2022-09-20T09:50:30;2.42;;;1.10;;
57191;SDS011;43052;52.588;13.396;2022-09-20T09:52:58;4.22;;;1.88;;
57191;SDS011;43052;52.588;13.396;2022-09-20T09:55:28;5.60;;;1.50;;
57191;SDS011;43052;52.588;13.396;2022-09-20T09:58:05;3.00;;;1.92;;
57191;SDS011;43052;52.588;13.396;2022-09-20T10:00:40;1.90;;;1.20;;
57191;SDS011;43052;52.588;13.396;2022-09-20T10:08:38;3.40;;;1.30;;
57191;SDS011;43052;52.588;13.396;2022-09-20T10:11:27;3.67;;;1.67;;
57191;SDS011;43052;52.588;13.396;2022-09-20T10:14:22;4.10;;;1.95;;
57191;SDS011;43052;52.588;13.396;2022-09-20T10:17:15;3.05;;;1.50;;
57191;SDS011;43052;52.588;13.396;2022-09-20T10:22:59;3.22;;;1.40;;
57191;SDS011;43052;52.588;13.396;2022-09-20T10:25:40;3.20;;;1.50;;
57191;SDS011;43052;52.588;13.396;2022-09-20T10:37:20;4.13;;;2.30;;
57191;SDS011;43052;52.588;13.396;2022-09-20T10:40:24;4.07;;;2.13;;
57191;SDS011;43052;52.588;13.396;2022-09-20T10:43:11;3.90;;;2.25;;
57191;SDS011;43052;52.588;13.396;2022-09-20T10:54:31;4.50;;;2.63;;
57191;SDS011;43052;52.588;13.396;2022-09-20T10:57:19;4.00;;;2.70;;
57191;SDS011;43052;52.588;13.396;2022-09-20T11:03:00;2.33;;;0.80;;
57191;SDS011;43052;52.588;13.396;2022-09-20T11:08:18;3.90;;;0.98;;
57191;SDS011;43052;52.588;13.396;2022-09-20T11:10:50;1.20;;;0.60;;
57191;SDS011;43052;52.588;13.396;2022-09-20T11:13:31;0.52;;;0.52;;
57191;SDS011;43052;52.588;13.396;2022-09-20T11:16:04;0.50;;;0.50;;
57191;SDS011;43052;52.588;13.396;2022-09-20T11:18:38;1.65;;;0.80;;
57191;SDS011;43052;52.588;13.396;2022-09-20T11:23:53;2.17;;;1.00;;
57191;SDS011;43052;52.588;13.396;2022-09-20T11:26:46;1.77;;;1.10;;
57191;SDS011;43052;52.588;13.396;2022-09-20T11:31:56;2.40;;;1.38;;
57191;SDS011;43052;52.588;13.396;2022-09-20T11:34:35;4.38;;;1.45;;
57191;SDS011;43052;52.588;13.396;2022-09-20T11:37:13;3.67;;;1.40;;
57191;SDS011;43052;52.588;13.396;2022-09-20T11:39:50;3.58;;;1.38;;
57191;SDS011;43052;52.588;13.396;2022-09-20T11:42:19;4.50;;;1.50;;
57191;SDS011;43052;52.588;13.396;2022-09-20T11:44:48;2.33;;;1.30;;
57191;SDS011;43052;52.588;13.396;2022-09-20T11:47:24;3.20;;;1.70;;
57191;SDS011;43052;52.588;13.396;2022-09-20T11:50:23;3.30;;;1.35;;
57191;SDS011;43052;52.588;13.396;2022-09-20T11:53:38;1.52;;;1.42;;
57191;SDS011;43052;52.588;13.396;2022-09-20T11:56:17;3.03;;;1.50;;
57191;SDS011;43052;52.588;13.396;2022-09-20T11:58:46;3.25;;;1.65;;
57191;SDS011;43052;52.588;13.396;2022-09-20T12:01:13;3.35;;;2.30;;
57191;SDS011;43052;52.588;13.396;2022-09-20T12:03:41;4.20;;;2.42;;
57191;SDS011;43052;52.588;13.396;2022-09-20T12:06:28;3.30;;;1.90;;
57191;SDS011;43052;52.588;13.396;2022-09-20T12:08:57;3.28;;;2.30;;
57191;SDS011;43052;52.588;13.396;2022-09-20T12:11:30;5.65;;;2.83;;
57191;SDS011;43052;52.588;13.396;2022-09-20T12:14:02;6.28;;;3.25;;
57191;SDS011;43052;52.588;13.396;2022-09-20T12:16:45;4.28;;;3.22;;
57191;SDS011;43052;52.588;13.396;2022-09-20T12:24:31;4.55;;;2.45;;
57191;SDS011;43052;52.588;13.396;2022-09-20T12:27:03;3.33;;;2.15;;
57191;SDS011;43052;52.588;13.396;2022-09-20T12:32:29;2.63;;;1.52;;
57191;SDS011;43052;52.588;13.396;2022-09-20T12:35:01;4.80;;;2.08;;
57191;SDS011;43052;52.588;13.396;2022-09-20T12:40:56;4.15;;;1.98;;
57191;SDS011;43052;52.588;13.396;2022-09-20T12:43:33;3.60;;;2.13;;
57191;SDS011;43052;52.588;13.396;2022-09-20T12:46:02;3.30;;;2.17;;
57191;SDS011;43052;52.588;13.396;2022-09-20T12:48:33;2.92;;;2.25;;
57191;SDS011;43052;52.588;13.396;2022-09-20T12:51:02;2.78;;;1.95;;
57191;SDS011;43052;52.588;13.396;2022-09-20T12:56:43;1.95;;;1.55;;
57191;SDS011;43052;52.588;13.396;2022-09-20T12:59:18;0.88;;;0.80;;
57191;SDS011;43052;52.588;13.396;2022-09-20T13:01:47;2.40;;;0.90;;
57191;SDS011;43052;52.588;13.396;2022-09-20T13:07:29;1.60;;;0.90;;
57191;SDS011;43052;52.588;13.396;2022-09-20T13:09:59;0.90;;;0.82;;
57191;SDS011;43052;52.588;13.396;2022-09-20T13:12:29;1.00;;;0.80;;
57191;SDS011;43052;52.588;13.396;2022-09-20T13:14:54;2.30;;;0.98;;
57191;SDS011;43052;52.588;13.396;2022-09-20T13:17:24;1.60;;;0.90;;
57191;SDS011;43052;52.588;13.396;2022-09-20T13:19:53;1.13;;;0.80;;
57191;SDS011;43052;52.588;13.396;2022-09-20T13:22:24;1.02;;;1.00;;
57191;SDS011;43052;52.588;13.396;2022-09-20T13:24:54;3.28;;;1.20;;
57191;SDS011;43052;52.588;13.396;2022-09-20T13:27:26;1.05;;;0.88;;
57191;SDS011;43052;52.588;13.396;2022-09-20T13:30:07;2.25;;;0.90;;
57191;SDS011;43052;52.588;13.396;2022-09-20T13:32:49;1.10;;;0.85;;
57191;SDS011;43052;52.588;13.396;2022-09-20T13:35:16;0.80;;;0.80;;
57191;SDS011;43052;52.588;13.396;2022-09-20T13:40:18;1.03;;;0.93;;
57191;SDS011;43052;52.588;13.396;2022-09-20T13:42:45;1.10;;;1.00;;
57191;SDS011;43052;52.588;13.396;2022-09-20T13:45:13;1.35;;;1.10;;
57191;SDS011;43052;52.588;13.396;2022-09-20T13:47:42;1.30;;;0.90;;
57191;SDS011;43052;52.588;13.396;2022-09-20T13:50:16;1.50;;;0.90;;
57191;SDS011;43052;52.588;13.396;2022-09-20T13:52:53;1.25;;;0.85;;
57191;SDS011;43052;52.588;13.396;2022-09-20T13:55:27;1.58;;;0.90;;
57191;SDS011;43052;52.588;13.396;2022-09-20T13:57:53;0.80;;;0.80;;
57191;SDS011;43052;52.588;13.396;2022-09-20T14:00:20;1.60;;;0.95;;
57191;SDS011;43052;52.588;13.396;2022-09-20T14:02:46;1.38;;;0.90;;
57191;SDS011;43052;52.588;13.396;2022-09-20T14:05:17;1.35;;;0.90;;
57191;SDS011;43052;52.588;13.396;2022-09-20T14:07:44;1.75;;;0.90;;
57191;SDS011;43052;52.588;13.396;2022-09-20T14:13:01;1.77;;;1.10;;
57191;SDS011;43052;52.588;13.396;2022-09-20T14:15:32;1.30;;;0.93;;
57191;SDS011;43052;52.588;13.396;2022-09-20T14:18:01;0.80;;;0.80;;
57191;SDS011;43052;52.588;13.396;2022-09-20T14:20:28;1.23;;;1.00;;
57191;SDS011;43052;52.588;13.396;2022-09-20T14:22:54;2.03;;;0.80;;
57191;SDS011;43052;52.588;13.396;2022-09-20T14:25:21;0.93;;;0.88;;
57191;SDS011;43052;52.588;13.396;2022-09-20T14:28:03;1.00;;;0.77;;
57191;SDS011;43052;52.588;13.396;2022-09-20T14:30:33;1.10;;;1.00;;
57191;SDS011;43052;52.588;13.396;2022-09-20T14:33:00;0.80;;;0.80;;
57191;SDS011;43052;52.588;13.396;2022-09-20T14:35:29;1.90;;;0.70;;
57191;SDS011;43052;52.588;13.396;2022-09-20T14:37:56;2.78;;;0.68;;
57191;SDS011;43052;52.588;13.396;2022-09-20T14:40:25;1.85;;;0.93;;
57191;SDS011;43052;52.588;13.396;2022-09-20T14:42:56;0.95;;;0.70;;
57191;SDS011;43052;52.588;13.396;2022-09-20T14:45:34;1.67;;;0.70;;
57191;SDS011;43052;52.588;13.396;2022-09-20T14:53:40;1.58;;;0.82;;
57191;SDS011;43052;52.588;13.396;2022-09-20T15:01:30;1.77;;;1.00;;
57191;SDS011;43052;52.588;13.396;2022-09-20T15:03:57;1.60;;;0.68;;
57191;SDS011;43052;52.588;13.396;2022-09-20T15:06:23;2.40;;;0.60;;
57191;SDS011;43052;52.588;13.396;2022-09-20T15:08:49;1.35;;;0.60;;
57191;SDS011;43052;52.588;13.396;2022-09-20T15:11:15;0.85;;;0.80;;
57191;SDS011;43052;52.588;13.396;2022-09-20T15:13:41;2.55;;;1.15;;
57191;SDS011;43052;52.588;13.396;2022-09-20T15:16:06;2.05;;;0.70;;
57191;SDS011;43052;52.588;13.396;2022-09-20T15:18:37;2.00;;;0.90;;
57191;SDS011;43052;52.588;13.396;2022-09-20T15:21:05;0.95;;;0.93;;
57191;SDS011;43052;52.588;13.396;2022-09-20T15:23:30;0.93;;;0.93;;
57191;SDS011;43052;52.588;13.396;2022-09-20T15:25:55;3.33;;;0.80;;
57191;SDS011;43052;52.588;13.396;2022-09-20T15:28:20;0.85;;;0.60;;
57191;SDS011;43052;52.588;13.396;2022-09-20T15:30:47;2.60;;;0.80;;
57191;SDS011;43052;52.588;13.396;2022-09-20T15:33:17;3.22;;;1.10;;
57191;SDS011;43052;52.588;13.396;2022-09-20T15:35:44;1.23;;;0.90;;
57191;SDS011;43052;52.588;13.396;2022-09-20T15:38:10;1.45;;;1.00;;
57191;SDS011;43052;52.588;13.396;2022-09-20T15:40:42;1.42;;;0.90;;
57191;SDS011;43052;52.588;13.396;2022-09-20T15:43:11;1.25;;;0.80;;
57191;SDS011;43052;52.588;13.396;2022-09-20T15:45:50;1.45;;;0.80;;
57191;SDS011;43052;52.588;13.396;2022-09-20T15:48:20;4.03;;;3.00;;
57191;SDS011;43052;52.588;13.396;2022-09-20T15:53:24;1.23;;;0.90;;
57191;SDS011;43052;52.588;13.396;2022-09-20T15:55:49;1.13;;;0.90;;
57191;SDS011;43052;52.588;13.396;2022-09-20T15:58:14;1.23;;;1.00;;
57191;SDS011;43052;52.588;13.396;2022-09-20T16:00:41;2.08;;;1.45;;
57191;SDS011;43052;52.588;13.396;2022-09-20T16:03:06;1.70;;;1.13;;
57191;SDS011;43052;52.588;13.396;2022-09-20T16:05:31;2.85;;;1.58;;
57191;SDS011;43052;52.588;13.396;2022-09-20T16:07:56;3.67;;;1.88;;
57191;SDS011;43052;52.588;13.396;2022-09-20T16:10:22;3.97;;;2.38;;
57191;SDS011;43052;52.588;13.396;2022-09-20T16:12:47;2.75;;;1.67;;
57191;SDS011;43052;52.588;13.396;2022-09-20T16:15:12;3.42;;;1.85;;
57191;SDS011;43052;52.588;13.396;2022-09-20T16:17:37;2.28;;;1.60;;
57191;SDS011;43052;52.588;13.396;2022-09-20T16:20:22;2.85;;;1.73;;
57191;SDS011;43052;52.588;13.396;2022-09-20T16:22:47;3.22;;;2.00;;
57191;SDS011;43052;52.588;13.396;2022-09-20T16:25:12;2.88;;;2.25;;
57191;SDS011;43052;52.588;13.396;2022-09-20T16:27:38;3.85;;;2.33;;
57191;SDS011;43052;52.588;13.396;2022-09-20T16:30:03;4.05;;;2.33;;
57191;SDS011;43052;52.588;13.396;2022-09-20T16:32:29;2.80;;;1.90;;
57191;SDS011;43052;52.588;13.396;2022-09-20T16:34:54;2.28;;;1.58;;
57191;SDS011;43052;52.588;13.396;2022-09-20T16:37:19;4.55;;;1.60;;
57191;SDS011;43052;52.588;13.396;2022-09-20T16:39:46;3.63;;;1.95;;
57191;SDS011;43052;52.588;13.396;2022-09-20T16:42:12;3.47;;;1.88;;
57191;SDS011;43052;52.588;13.396;2022-09-20T16:44:38;2.60;;;1.63;;
57191;SDS011;43052;52.588;13.396;2022-09-20T16:47:05;2.75;;;2.17;;
57191;SDS011;43052;52.588;13.396;2022-09-20T16:49:32;3.90;;;2.30;;
57191;SDS011;43052;52.588;13.396;2022-09-20T16:51:58;3.35;;;2.38;;
57191;SDS011;43052;52.588;13.396;2022-09-20T16:54:24;3.75;;;1.90;;
57191;SDS011;43052;52.588;13.396;2022-09-20T16:56:49;2.33;;;2.00;;
57191;SDS011;43052;52.588;13.396;2022-09-20T16:59:16;3.13;;;2.05;;
57191;SDS011;43052;52.588;13.396;2022-09-20T17:01:44;4.22;;;2.30;;
57191;SDS011;43052;52.588;13.396;2022-09-20T17:04:10;2.65;;;1.92;;
57191;SDS011;43052;52.588;13.396;2022-09-20T17:06:39;3.13;;;2.20;;
57191;SDS011;43052;52.588;13.396;2022-09-20T17:09:06;3.35;;;2.25;;
57191;SDS011;43052;52.588;13.396;2022-09-20T17:11:32;4.30;;;2.40;;
57191;SDS011;43052;52.588;13.396;2022-09-20T17:13:59;5.18;;;3.45;;
57191;SDS011;43052;52.588;13.396;2022-09-20T17:16:26;5.05;;;3.03;;
57191;SDS011;43052;52.588;13.396;2022-09-20T17:18:54;3.83;;;2.72;;
57191;SDS011;43052;52.588;13.396;2022-09-20T17:21:22;6.18;;;3.75;;
57191;SDS011;43052;52.588;13.396;2022-09-20T17:23:48;5.50;;;3.80;;
57191;SDS011;43052;52.588;13.396;2022-09-20T17:26:19;6.68;;;4.07;;
57191;SDS011;43052;52.588;13.396;2022-09-20T17:28:53;6.03;;;4.00;;
57191;SDS011;43052;52.588;13.396;2022-09-20T17:31:24;7.00;;;3.85;;
57191;SDS011;43052;52.588;13.396;2022-09-20T17:33:55;5.55;;;4.03;;
57191;SDS011;43052;52.588;13.396;2022-09-20T17:36:24;7.13;;;4.18;;
57191;SDS011;43052;52.588;13.396;2022-09-20T17:38:52;7.05;;;4.57;;
57191;SDS011;43052;52.588;13.396;2022-09-20T17:41:18;8.65;;;5.80;;
57191;SDS011;43052;52.588;13.396;2022-09-20T17:43:44;7.85;;;6.22;;
57191;SDS011;43052;52.588;13.396;2022-09-20T17:46:15;7.30;;;5.05;;
57191;SDS011;43052;52.588;13.396;2022-09-20T17:48:45;8.48;;;6.38;;
57191;SDS011;43052;52.588;13.396;2022-09-20T17:51:13;9.55;;;6.70;;
57191;SDS011;43052;52.588;13.396;2022-09-20T17:53:39;7.90;;;5.78;;
57191;SDS011;43052;52.588;13.396;2022-09-20T17:56:04;7.50;;;5.50;;
57191;SDS011;43052;52.588;13.396;2022-09-20T17:58:31;8.10;;;6.00;;
57191;SDS011;43052;52.588;13.396;2022-09-20T18:01:02;7.28;;;5.65;;
57191;SDS011;43052;52.588;13.396;2022-09-20T18:03:33;6.93;;;5.45;;
57191;SDS011;43052;52.588;13.396;2022-09-20T18:08:37;8.88;;;6.38;;
57191;SDS011;43052;52.588;13.396;2022-09-20T18:11:02;7.72;;;5.20;;
57191;SDS011;43052;52.588;13.396;2022-09-20T18:13:28;7.60;;;5.85;;
57191;SDS011;43052;52.588;13.396;2022-09-20T18:15:54;7.68;;;5.70;;
57191;SDS011;43052;52.588;13.396;2022-09-20T18:18:20;7.15;;;5.60;;
57191;SDS011;43052;52.588;13.396;2022-09-20T18:20:45;8.13;;;6.22;;
57191;SDS011;43052;52.588;13.396;2022-09-20T18:23:11;9.38;;;6.88;;